Flight Track Log - Related Links

Times and Time Zones

All times are in EDT time to prevent confusion due to time zone crossing. See the SKW6492 flight status page for this flight to view local times or setup timezone preferences in your user account.

Time Position Orientation Groundspeed Altitude Reporting Facility
EDT Latitude Longitude Course Direction KTS MPH feet Rate Location/Type
Fri 10:21:01 PM 39.8833 -104.5833 75° East 180 207 7,000  Level Denver TRACON
Fri 10:22:01 PM 39.9000 -104.5000 75° East 249 287 8,700 1,850 Climbing Denver TRACON
Fri 10:23:01 PM 39.9333 -104.4167 62° Northeast 298 343 10,700 1,900 Climbing Denver TRACON
Fri 10:24:01 PM 40.0167 -104.3833 17° North 325 374 12,500 1,714 Climbing Denver TRACON
Fri 10:25:07 PM 40.1000 -104.4333 335° Northwest 322 371 14,300 1,619 Climbing Denver TRACON
Fri 10:26:07 PM 40.1833 -104.5000 329° Northwest 324 373 15,900 1,431 Climbing Denver TRACON
Fri 10:27:17 PM 40.2658 -104.5772 324° Northwest 341 392 17,400 1,455 Climbing Denver Center
Fri 10:28:19 PM 40.3575 -104.6386 333° Northwest 346 398 19,100 1,306 Climbing Denver Center
Fri 10:29:21 PM 40.4508 -104.6842 340° North 357 411 20,100 1,122 Climbing Denver Center
Fri 10:30:22 PM 40.5467 -104.7333 339° North 369 425 21,400 1,220 Climbing Denver Center
Fri 10:31:24 PM 40.6558 -104.7861 340° North 387 445 22,600 1,065 Climbing Denver Center
Fri 10:32:26 PM 40.7483 -104.8339 339° North 383 441 23,600 1,024 Climbing Denver Center
Fri 10:33:27 PM 40.8497 -104.8775 342° North 384 442 24,700 1,073 Climbing Denver Center
Fri 10:34:29 PM 40.9519 -104.9308 338° Northwest 392 451 25,800 1,161 Climbing Denver Center
Fri 10:35:31 PM 41.0714 -104.9892 340° North 392 451 27,100 1,122 Climbing Denver Center
Fri 10:36:32 PM 41.1681 -105.0375 339° North 389 448 28,100 976 Climbing Denver Center
Fri 10:37:34 PM 41.2589 -105.1400 320° Northwest 385 443 29,100 774 Climbing Denver Center
Fri 10:38:36 PM 41.3367 -105.2256 320° Northwest 381 438 29,700 537 Climbing Denver Center
Fri 10:39:37 PM 41.4158 -105.3139 320° Northwest 385 443 30,200 537 Climbing Denver Center
Fri 10:40:39 PM 41.5092 -105.4181 320° Northwest 390 449 30,800 581 Climbing Denver Center
Fri 10:41:41 PM 41.5897 -105.5078 320° Northwest 393 452 31,400 585 Climbing Denver Center
Fri 10:42:42 PM 41.6831 -105.6133 320° Northwest 392 451 32,000 293 Climbing Denver Center
Fri 10:43:44 PM 41.7636 -105.7047 320° Northwest 395 455 32,000  Level Denver Center
Fri 10:44:46 PM 41.8469 -105.7978 320° Northwest 405 466 32,000  Level Denver Center
Fri 10:45:47 PM 41.9439 -105.9089 320° Northwest 409 471 32,000  Level Denver Center
Fri 10:46:49 PM 42.0278 -106.0044 320° Northwest 410 472 32,000  Level Denver Center
Fri 10:47:51 PM 42.1253 -106.1175 319° Northwest 412 474 32,000  Level Denver Center
Fri 10:48:52 PM 42.2097 -106.2147 320° Northwest 416 479 32,000  Level Denver Center
Fri 10:49:54 PM 42.3089 -106.3278 320° Northwest 417 480 32,000  Level Denver Center
Fri 10:50:56 PM 42.3925 -106.4258 319° Northwest 416 479 32,000  Level Denver Center
Fri 10:51:57 PM 42.4758 -106.5233 319° Northwest 415 478 32,000  Level Denver Center
Fri 10:52:59 PM 42.5739 -106.6378 319° Northwest 416 479 32,000  Level Denver Center
Fri 10:54:00 PM 42.6572 -106.7344 320° Northwest 413 475 32,000  Level Denver Center
Fri 10:55:02 PM 42.7528 -106.8492 319° Northwest 411 473 32,000  Level Denver Center
Fri 10:56:03 PM 42.8344 -106.9453 319° Northwest 407 468 32,000  Level Denver Center
Fri 10:56:51 PM 42.9050 -107.0292 319° Northwest 407 468 32,000  Level Salt Lake Center
Fri 10:57:52 PM 42.9883 -107.1294 319° Northwest 405 466 32,000  Level Salt Lake Center
Fri 10:58:54 PM 43.0750 -107.2256 321° Northwest 402 463 32,000  Level Salt Lake Center
Fri 10:59:55 PM 43.1669 -107.3094 326° Northwest 400 460 32,000  Level Salt Lake Center
Fri 11:00:57 PM 43.2606 -107.3967 326° Northwest 405 466 32,000  Level Salt Lake Center
Fri 11:01:58 PM 43.3517 -107.4831 325° Northwest 401 461 32,000  Level Salt Lake Center
Fri 11:03:00 PM 43.4436 -107.5714 325° Northwest 403 464 32,000  Level Salt Lake Center
Fri 11:04:01 PM 43.5539 -107.6753 326° Northwest 399 459 32,000 -98 Level Salt Lake Center
Fri 11:05:03 PM 43.6444 -107.7639 325° Northwest 399 459 31,800 -1,122 Descending Salt Lake Center
Fri 11:06:04 PM 43.7383 -107.8544 325° Northwest 407 468 29,700 -2,164 Descending Salt Lake Center
Fri 11:07:05 PM 43.8308 -107.9431 325° Northwest 407 468 27,400 -2,244 Descending Salt Lake Center
Fri 11:08:07 PM 43.9244 -108.0328 325° Northwest 408 470 25,100 -2,244 Descending Salt Lake Center
Fri 11:09:08 PM 44.0197 -108.1236 326° Northwest 413 475 22,800 -2,244 Descending Salt Lake Center
Fri 11:10:10 PM 44.1117 -108.2136 325° Northwest 409 471 20,500 -2,244 Descending Salt Lake Center
Fri 11:11:11 PM 44.2017 -108.3025 325° Northwest 402 463 18,200 -2,262 Descending Salt Lake Center
Fri 11:12:12 PM 44.2903 -108.3883 325° Northwest 395 455 15,900 -2,244 Descending Salt Lake Center
Fri 11:13:14 PM 44.3739 -108.4714 325° Northwest 385 443 13,600 -2,341 Descending Salt Lake Center
Fri 11:14:15 PM 44.4658 -108.5611 325° Northwest 360 414 11,100 -1,623 Descending Salt Lake Center
Fri 11:15:16 PM 44.5300 -108.6239 325° Northwest 321 369 10,300 -976 Descending Salt Lake Center
Fri 11:16:18 PM 44.5856 -108.6806 324° Northwest 275 316 9,100 -878 Descending Salt Lake Center
Fri 11:17:19 PM 44.6369 -108.7356 323° Northwest 252 290 8,500 -639 Descending Salt Lake Center
Fri 11:18:20 PM 44.6461 -108.7964 282° West 224 258 7,800 -488 Descending Salt Lake Center
Fri 11:19:22 PM 44.6169 -108.8547 235° Southwest 198 228 7,500 -293 Descending Salt Lake Center
Fri 11:20:23 PM 44.5894 -108.9019 231° Southwest 177 204 7,200 -541 Descending Salt Lake Center
Fri 11:21:24 PM 44.5633 -108.9492 232° Southwest 165 190 6,400 -836 Descending Salt Lake Center
Fri 11:22:25 PM 44.5383 -108.9933 232° Southwest 155 178 5,500 -634 Descending Salt Lake Center
Fri 11:23:27 PM 44.5106 -109.0428 232° Southwest 153 176 5,100 -387 Descending Salt Lake Center

Login

Don't have an account? Register now (free) for customized features, flight alerts, and more!